Time;durP1;ratioP1;P1;durP2;ratioP2;P2;SDS_P1;SDS_P2;PMS_P1;PMS_P2;Temp;Humidity;BMP_temperature;BMP_pressure;BME280_temperature;BME280_humidity;BME280_pressure;Samples;Min_cycle;Max_cycle;Signal;HPM_P1;HPM_P2
2022/05/24 00:00:55;;;;;;;5.80;5.20;;;22.50;91.70;;;;;;5043775;28;20259;-71
2022/05/24 00:03:21;;;;;;;5.87;4.97;;;22.50;91.70;;;;;;5018531;28;20436;-71
2022/05/24 00:05:50;;;;;;;5.53;5.10;;;22.50;91.70;;;;;;5041122;28;20442;-71
2022/05/24 00:08:16;;;;;;;4.90;4.50;;;22.50;91.70;;;;;;5032961;28;20439;-71
2022/05/24 00:10:47;;;;;;;5.47;5.00;;;22.50;91.70;;;;;;5020535;28;20459;-71
2022/05/24 00:13:13;;;;;;;8.07;5.30;;;22.40;91.60;;;;;;5026260;28;20790;-71
2022/05/24 00:15:40;;;;;;;5.50;5.00;;;22.40;91.60;;;;;;5043952;28;20877;-71
2022/05/24 00:18:14;;;;;;;5.07;4.60;;;22.40;91.70;;;;;;5039725;28;20466;-71
2022/05/24 00:20:45;;;;;;;4.60;4.20;;;22.40;91.70;;;;;;5031293;28;20461;-71
2022/05/24 00:23:12;;;;;;;5.80;4.73;;;22.40;91.70;;;;;;5032285;28;21039;-71
2022/05/24 00:25:42;;;;;;;5.30;4.77;;;22.40;91.70;;;;;;5032736;28;20427;-71
2022/05/24 00:28:12;;;;;;;4.83;4.33;;;22.40;91.70;;;;;;5040801;28;20423;-71
2022/05/24 00:30:45;;;;;;;4.90;4.50;;;22.40;91.80;;;;;;5041545;28;20451;-71
2022/05/24 00:33:11;;;;;;;4.67;4.30;;;22.40;91.80;;;;;;5044164;28;20430;-71
2022/05/24 00:35:59;;;;;;;5.30;4.80;;;22.30;91.70;;;;;;5037288;28;20473;-71
2022/05/24 00:38:36;;;;;;;6.37;4.73;;;22.30;91.70;;;;;;5026136;28;20434;-71
2022/05/24 00:41:29;;;;;;;4.60;4.20;;;22.30;91.70;;;;;;5028763;28;21036;-71
2022/05/24 00:44:23;;;;;;;4.70;4.30;;;22.30;91.70;;;;;;5001629;28;20454;-71
2022/05/24 00:47:04;;;;;;;5.67;4.80;;;22.30;91.70;;;;;;5039291;28;20522;-70
2022/05/24 00:49:39;;;;;;;5.53;5.03;;;22.30;91.80;;;;;;5034285;28;20454;-70
2022/05/24 00:52:12;;;;;;;5.57;5.07;;;22.20;91.80;;;;;;5036702;28;20837;-71
2022/05/24 00:54:38;;;;;;;4.90;4.50;;;22.20;91.80;;;;;;5032902;28;20442;-71
2022/05/24 00:57:44;;;;;;;4.70;4.30;;;22.20;91.80;;;;;;5036949;28;20430;-71
2022/05/24 01:00:12;;;;;;;4.87;4.37;;;22.20;91.80;;;;;;5040094;28;20450;-71
2022/05/24 01:02:38;;;;;;;4.83;4.43;;;22.20;92.20;;;;;;5032717;28;20465;-71
2022/05/24 01:05:06;;;;;;;5.40;4.90;;;22.20;91.80;;;;;;5033900;28;20424;-73
2022/05/24 01:07:37;;;;;;;4.93;4.43;;;22.20;91.80;;;;;;5031162;28;20525;-71
2022/05/24 01:10:04;;;;;;;5.53;4.80;;;22.20;91.90;;;;;;5031954;28;20841;-72
2022/05/24 01:12:39;;;;;;;6.73;5.07;;;22.20;91.90;;;;;;5040122;28;20427;-71
2022/05/24 01:15:10;;;;;;;4.77;4.37;;;22.10;91.80;;;;;;5052064;28;20950;-71
2022/05/24 01:17:36;;;;;;;5.17;4.50;;;22.10;91.80;;;;;;5023958;28;20446;-71
2022/05/24 01:20:03;;;;;;;5.43;4.33;;;22.10;91.90;;;;;;5040814;28;20455;-71
2022/05/24 01:22:52;;;;;;;4.57;4.17;;;22.10;91.90;;;;;;5042922;28;20477;-71
2022/05/24 01:25:22;;;;;;;5.07;4.57;;;22.10;91.90;;;;;;5032856;28;20512;-71
2022/05/24 01:27:48;;;;;;;4.77;4.37;;;22.10;91.90;;;;;;5036656;28;20435;-71
2022/05/24 01:30:19;;;;;;;4.57;4.17;;;22.10;92.00;;;;;;5035081;28;20442;-71
2022/05/24 01:38:24;;;;;;;5.80;3.70;;;22.00;92.20;;;;;;5041050;28;20421;-71
2022/05/24 01:40:54;;;;;;;4.90;4.50;;;22.00;92.10;;;;;;5029351;28;20894;-71
2022/05/24 01:43:26;;;;;;;5.43;4.83;;;22.00;92.20;;;;;;5021960;28;20449;-71
2022/05/24 01:46:13;;;;;;;5.00;4.60;;;22.00;92.30;;;;;;5030410;28;20830;-71
2022/05/24 01:48:46;;;;;;;5.47;4.97;;;21.90;92.30;;;;;;5030630;28;20500;-71
2022/05/24 01:51:18;;;;;;;7.20;4.77;;;22.00;92.40;;;;;;5013921;28;20442;-71
2022/05/24 01:53:49;;;;;;;4.93;4.53;;;22.00;92.40;;;;;;5039705;28;20787;-70
2022/05/24 01:56:21;;;;;;;5.23;4.73;;;21.90;92.30;;;;;;5015518;28;20521;-71
2022/05/24 01:58:56;;;;;;;5.70;5.20;;;21.90;92.40;;;;;;5037758;28;20426;-71
2022/05/24 02:01:41;;;;;;;5.40;4.90;;;21.90;92.50;;;;;;5033162;28;20459;-72
2022/05/24 02:04:10;;;;;;;4.97;4.30;;;21.90;92.50;;;;;;5015016;28;20935;-71
2022/05/24 02:06:36;;;;;;;4.90;4.40;;;21.90;92.50;;;;;;5038706;28;20435;-70
2022/05/24 02:09:04;;;;;;;5.27;4.77;;;21.80;92.50;;;;;;5032288;28;20472;-71
2022/05/24 02:11:32;;;;;;;4.83;4.33;;;21.80;92.50;;;;;;5031081;28;20466;-71
2022/05/24 02:14:13;;;;;;;5.93;5.37;;;21.80;92.50;;;;;;5033393;28;20426;-71
2022/05/24 02:16:46;;;;;;;6.50;5.30;;;21.80;92.50;;;;;;5034701;28;20435;-71
2022/05/24 02:19:14;;;;;;;5.57;4.70;;;21.80;92.50;;;;;;5029354;28;20451;-71
2022/05/24 02:21:44;;;;;;;5.53;5.03;;;21.80;92.50;;;;;;5042152;28;20461;-71
2022/05/24 02:24:17;;;;;;;5.43;4.93;;;21.70;92.40;;;;;;5035402;28;20537;-71
2022/05/24 02:26:43;;;;;;;5.00;4.50;;;21.70;92.50;;;;;;5038572;28;20476;-71
2022/05/24 02:29:18;;;;;;;4.60;4.10;;;21.70;92.40;;;;;;5044023;28;20445;-71
2022/05/24 02:31:48;;;;;;;4.50;3.77;;;21.60;92.20;;;;;;5035811;28;20484;-71
2022/05/24 02:34:15;;;;;;;4.30;3.90;;;21.60;92.10;;;;;;4999585;28;20447;-71
2022/05/24 02:36:44;;;;;;;3.60;3.30;;;21.60;92.10;;;;;;5011893;28;20940;-71
2022/05/24 02:39:10;;;;;;;4.90;3.87;;;21.60;92.10;;;;;;5030515;28;21059;-72
2022/05/24 02:41:44;;;;;;;5.43;3.60;;;21.60;92.10;;;;;;5005741;28;20473;-72
2022/05/24 02:44:18;;;;;;;3.97;3.40;;;21.50;92.00;;;;;;5031861;28;20429;-72
2022/05/24 02:46:48;;;;;;;4.90;3.70;;;21.50;92.00;;;;;;5031238;28;20438;-72
2022/05/24 02:49:17;;;;;;;3.90;2.80;;;21.50;91.90;;;;;;5035161;28;21017;-72
2022/05/24 02:51:44;;;;;;;4.47;3.53;;;21.50;91.90;;;;;;5033152;28;20430;-72
2022/05/24 02:54:13;;;;;;;3.70;3.10;;;21.50;91.90;;;;;;5038707;28;20424;-73
2022/05/24 02:56:39;;;;;;;6.53;4.17;;;21.50;91.90;;;;;;5032072;28;20971;-72
2022/05/24 02:59:09;;;;;;;3.47;3.17;;;21.40;91.80;;;;;;5030893;28;20474;-72
2022/05/24 03:01:35;;;;;;;5.00;3.30;;;21.40;91.80;;;;;;5029425;28;20485;-72
2022/05/24 03:04:03;;;;;;;5.20;3.00;;;21.40;91.80;;;;;;5039564;28;20438;-72
2022/05/24 03:09:33;;;;;;;3.43;3.13;;;21.40;91.70;;;;;;5037958;28;20204;-72
2022/05/24 03:09:36;;;;;;;3.80;3.30;;;21.40;91.70;;;;;;5030842;28;20493;-72
2022/05/24 03:14:53;;;;;;;5.30;3.00;;;21.40;91.60;;;;;;5029797;28;20467;-72
2022/05/24 03:17:20;;;;;;;4.07;3.00;;;21.30;91.60;;;;;;5018514;28;20430;-72
2022/05/24 03:19:49;;;;;;;4.50;2.70;;;21.30;91.50;;;;;;5044355;28;20997;-72
2022/05/24 03:22:15;;;;;;;4.20;2.90;;;21.30;91.50;;;;;;5050209;28;20560;-73
2022/05/24 03:24:43;;;;;;;4.23;2.53;;;21.30;91.50;;;;;;5048021;28;20439;-72
2022/05/24 03:27:13;;;;;;;4.33;2.70;;;21.30;91.50;;;;;;5050571;28;20425;-72
2022/05/24 03:29:41;;;;;;;4.50;2.80;;;21.30;91.50;;;;;;5033289;28;20455;-72
2022/05/24 03:32:09;;;;;;;2.93;2.73;;;21.30;91.50;;;;;;5048437;28;20425;-72
2022/05/24 03:34:38;;;;;;;4.67;2.80;;;21.30;91.50;;;;;;5043570;28;20493;-72
2022/05/24 03:37:05;;;;;;;4.50;2.87;;;21.30;91.50;;;;;;5013946;28;20430;-72
2022/05/24 03:39:34;;;;;;;7.30;2.70;;;21.20;91.40;;;;;;5038589;28;21055;-72
2022/05/24 03:42:00;;;;;;;3.47;2.47;;;21.30;91.50;;;;;;5020315;28;20549;-72
2022/05/24 03:44:26;;;;;;;3.43;2.70;;;21.20;91.40;;;;;;5040504;28;20443;-72
2022/05/24 03:46:56;;;;;;;2.97;2.77;;;21.20;91.40;;;;;;5032309;28;20468;-73
2022/05/24 03:49:23;;;;;;;2.60;2.33;;;21.20;91.40;;;;;;5046592;28;20812;-73
2022/05/24 03:51:55;;;;;;;4.63;2.70;;;21.20;91.40;;;;;;5050647;28;20435;-72
2022/05/24 03:54:23;;;;;;;2.70;2.10;;;21.20;91.40;;;;;;5041797;28;20536;-72
2022/05/24 03:59:34;;;;;;;3.07;2.40;;;21.20;91.40;;;;;;5022581;28;20455;-72
2022/05/24 04:02:02;;;;;;;2.87;2.43;;;21.20;91.40;;;;;;5036610;28;20516;-72
2022/05/24 04:04:33;;;;;;;2.73;2.40;;;21.10;91.40;;;;;;5034376;28;20426;-72
2022/05/24 04:07:01;;;;;;;3.30;2.40;;;21.20;91.40;;;;;;5047934;28;20945;-72
2022/05/24 04:09:34;;;;;;;3.93;2.67;;;21.10;91.70;;;;;;5043447;28;20528;-72
2022/05/24 04:12:03;;;;;;;3.20;2.50;;;21.10;91.40;;;;;;5034523;28;20434;-72
2022/05/24 04:14:30;;;;;;;4.10;2.43;;;21.10;91.30;;;;;;5025210;28;20484;-72
2022/05/24 04:16:56;;;;;;;4.00;2.63;;;21.10;91.40;;;;;;5024812;28;20446;-72
2022/05/24 04:19:30;;;;;;;2.50;2.30;;;21.10;91.40;;;;;;5040090;28;20456;-72
2022/05/24 04:21:58;;;;;;;7.20;2.70;;;21.10;91.40;;;;;;5035084;28;20607;-72
2022/05/24 04:24:25;;;;;;;4.50;2.27;;;21.10;91.40;;;;;;5022114;28;20432;-72
2022/05/24 04:26:56;;;;;;;4.00;2.50;;;21.00;91.40;;;;;;5052224;28;20459;-72
2022/05/24 04:29:24;;;;;;;2.90;2.40;;;21.00;91.40;;;;;;5045006;28;20484;-72
2022/05/24 04:31:52;;;;;;;5.60;3.30;;;21.00;91.40;;;;;;5048795;28;20936;-72
2022/05/24 04:34:19;;;;;;;6.30;3.57;;;21.00;91.40;;;;;;5040732;28;20759;-72
2022/05/24 04:36:45;;;;;;;4.23;2.77;;;21.00;91.40;;;;;;5033142;28;20460;-71
2022/05/24 04:39:13;;;;;;;2.87;2.57;;;21.00;91.30;;;;;;5041369;28;20206;-70
2022/05/24 04:44:24;;;;;;;3.80;2.53;;;20.90;91.30;;;;;;5048187;28;20408;-71
2022/05/24 04:47:07;;;;;;;4.47;2.47;;;20.90;91.30;;;;;;5034337;28;20492;-72
2022/05/24 04:49:41;;;;;;;3.10;2.50;;;20.90;91.30;;;;;;5037370;28;20448;-71
2022/05/24 04:52:12;;;;;;;5.60;2.80;;;20.90;91.30;;;;;;5044276;28;20439;-71
2022/05/24 04:54:40;;;;;;;3.13;2.47;;;20.80;91.20;;;;;;5042230;28;20543;-72
2022/05/24 04:57:08;;;;;;;3.20;2.50;;;20.80;91.20;;;;;;5020573;28;20577;-71
2022/05/24 04:59:39;;;;;;;2.57;2.33;;;20.80;91.20;;;;;;5046495;28;20443;-71
2022/05/24 05:02:08;;;;;;;3.80;2.60;;;20.80;91.20;;;;;;5045989;28;20546;-71
2022/05/24 05:04:37;;;;;;;3.83;2.60;;;20.80;91.10;;;;;;5041749;28;20524;-71
2022/05/24 05:07:04;;;;;;;3.90;2.53;;;20.80;91.20;;;;;;5038783;28;20433;-72
2022/05/24 05:09:36;;;;;;;3.43;2.73;;;20.80;91.20;;;;;;5048460;28;20447;-71
2022/05/24 05:12:07;;;;;;;5.03;3.00;;;20.80;91.20;;;;;;5038295;28;20437;-71
2022/05/24 05:14:34;;;;;;;6.07;2.70;;;20.80;91.20;;;;;;5041683;28;20435;-71
2022/05/24 05:17:03;;;;;;;3.63;2.70;;;20.70;91.10;;;;;;5038055;28;20504;-71
2022/05/24 05:19:32;;;;;;;4.77;2.60;;;20.70;91.10;;;;;;5031288;28;20462;-71
2022/05/24 05:22:03;;;;;;;5.00;2.83;;;20.70;91.10;;;;;;5041066;28;20467;-71
2022/05/24 05:24:30;;;;;;;4.07;2.50;;;20.70;91.20;;;;;;5040378;28;20433;-71
2022/05/24 05:26:58;;;;;;;3.20;2.37;;;20.70;91.20;;;;;;5037727;28;20837;-71
2022/05/24 05:32:20;;;;;;;4.90;2.87;;;20.60;91.20;;;;;;5024779;28;20825;-72
2022/05/24 05:34:47;;;;;;;4.00;2.23;;;20.60;91.20;;;;;;5013374;28;20819;-71
2022/05/24 05:37:16;;;;;;;3.37;2.23;;;20.60;91.20;;;;;;5035208;28;20527;-71
2022/05/24 05:39:52;;;;;;;5.10;2.37;;;20.50;91.10;;;;;;5036381;28;20441;-72
2022/05/24 05:42:19;;;;;;;3.73;2.07;;;20.50;91.10;;;;;;5022779;28;20888;-71
2022/05/24 05:44:48;;;;;;;2.60;1.80;;;20.50;91.10;;;;;;5030615;28;20794;-71
2022/05/24 05:47:16;;;;;;;4.90;2.30;;;20.50;91.10;;;;;;5047063;28;20432;-71
2022/05/24 05:49:42;;;;;;;3.90;2.67;;;20.50;91.10;;;;;;5049794;28;20838;-71
2022/05/24 05:52:08;;;;;;;8.50;1.90;;;20.50;91.40;;;;;;5008281;28;20534;-71
2022/05/24 05:54:36;;;;;;;2.80;2.00;;;20.50;91.10;;;;;;5028778;28;20493;-71
2022/05/24 05:57:08;;;;;;;3.87;1.80;;;20.40;91.00;;;;;;5030579;28;20476;-72
2022/05/24 05:59:34;;;;;;;9.60;2.77;;;20.40;91.10;;;;;;5040475;28;20475;-71
2022/05/24 06:02:01;;;;;;;6.87;2.20;;;20.40;91.20;;;;;;5041706;28;20629;-71
2022/05/24 06:04:27;;;;;;;5.47;2.60;;;20.40;91.20;;;;;;5041067;28;20424;-71
2022/05/24 06:06:53;;;;;;;9.83;2.70;;;20.40;91.20;;;;;;5044195;28;20417;-71
2022/05/24 06:09:20;;;;;;;6.00;2.50;;;20.40;91.20;;;;;;5038761;28;20452;-71
2022/05/24 06:11:48;;;;;;;4.60;1.90;;;20.40;91.20;;;;;;5034915;28;20431;-71
2022/05/24 06:14:19;;;;;;;3.37;2.00;;;20.40;91.20;;;;;;5040937;28;20466;-71
2022/05/24 06:16:45;;;;;;;4.17;2.17;;;20.30;91.10;;;;;;5019934;28;20518;-71
2022/05/24 06:19:18;;;;;;;2.90;1.70;;;20.30;91.10;;;;;;5045841;28;20980;-71
2022/05/24 06:21:45;;;;;;;3.07;1.90;;;20.30;91.20;;;;;;5038755;28;20497;-71
2022/05/24 06:24:14;;;;;;;3.73;1.77;;;20.30;91.20;;;;;;5021713;28;20453;-71
2022/05/24 06:26:40;;;;;;;6.00;1.90;;;20.30;91.20;;;;;;5031820;28;20456;-71
2022/05/24 06:29:07;;;;;;;1.83;1.40;;;20.30;91.20;;;;;;5022236;28;20528;-71
2022/05/24 06:31:33;;;;;;;5.90;2.10;;;20.30;91.20;;;;;;5039964;28;20442;-71
2022/05/24 06:34:01;;;;;;;2.83;1.60;;;20.30;91.20;;;;;;5031041;28;20605;-71
2022/05/24 06:36:29;;;;;;;8.97;1.90;;;20.20;91.20;;;;;;5030071;28;20828;-71
2022/05/24 06:38:55;;;;;;;4.77;2.20;;;20.30;91.30;;;;;;5016360;28;20985;-71
2022/05/24 06:41:23;;;;;;;3.73;2.00;;;20.20;91.30;;;;;;5047441;28;20458;-71
2022/05/24 06:43:58;;;;;;;3.37;2.00;;;20.20;91.30;;;;;;5039361;28;20845;-71
2022/05/24 06:46:26;;;;;;;4.70;2.07;;;20.20;91.30;;;;;;5019960;28;20430;-71
2022/05/24 06:48:54;;;;;;;3.90;2.00;;;20.20;91.30;;;;;;5035848;28;20531;-71
2022/05/24 06:51:23;;;;;;;2.00;1.33;;;20.20;91.30;;;;;;5032533;28;20458;-71
2022/05/24 06:53:50;;;;;;;3.43;1.40;;;20.20;91.40;;;;;;5029199;28;20460;-71
2022/05/24 06:56:18;;;;;;;3.63;1.83;;;20.20;91.40;;;;;;5033086;28;20476;-71
2022/05/24 06:58:49;;;;;;;2.90;1.90;;;20.20;91.40;;;;;;5033918;28;20540;-71
2022/05/24 07:04:00;;;;;;;2.40;1.70;;;20.10;91.40;;;;;;5048480;28;20431;-71
2022/05/24 07:06:26;;;;;;;3.17;1.60;;;20.10;91.40;;;;;;5032308;28;20427;-71
2022/05/24 07:08:56;;;;;;;6.20;2.20;;;20.10;91.40;;;;;;5012369;28;20745;-71
2022/05/24 07:11:23;;;;;;;2.40;1.53;;;20.10;91.50;;;;;;5041463;28;20427;-71
2022/05/24 07:13:49;;;;;;;3.13;1.50;;;20.10;91.50;;;;;;5048455;28;20440;-71
2022/05/24 07:16:17;;;;;;;2.10;1.20;;;20.10;91.50;;;;;;5032449;28;20528;-71
2022/05/24 07:18:43;;;;;;;5.97;1.57;;;20.10;91.50;;;;;;5029205;28;20429;-71
2022/05/24 07:21:09;;;;;;;3.13;1.60;;;20.10;91.60;;;;;;5039794;28;21073;-71
2022/05/24 07:23:37;;;;;;;2.73;1.77;;;20.10;91.60;;;;;;5043533;28;20420;-71
2022/05/24 07:26:16;;;;;;;3.60;1.53;;;20.00;91.60;;;;;;5038165;28;20428;-71
2022/05/24 07:28:43;;;;;;;4.17;2.00;;;20.00;91.70;;;;;;5024635;28;20436;-71
2022/05/24 07:31:09;;;;;;;4.37;1.70;;;20.00;91.70;;;;;;5009347;28;20937;-71
2022/05/24 07:33:36;;;;;;;4.67;1.83;;;20.00;91.70;;;;;;5030118;28;20415;-71
2022/05/24 07:36:03;;;;;;;2.57;1.80;;;20.00;91.70;;;;;;5020212;28;20971;-71
2022/05/24 07:38:30;;;;;;;2.97;1.43;;;20.00;91.70;;;;;;5043731;28;20904;-71
2022/05/24 07:46:28;;;;;;;2.43;1.50;;;20.00;91.70;;;;;;5040230;28;20426;-71
2022/05/24 07:48:58;;;;;;;3.40;1.70;;;20.00;91.80;;;;;;5022998;28;20440;-71
2022/05/24 07:51:27;;;;;;;2.47;1.40;;;20.00;91.80;;;;;;5017896;28;20468;-71
2022/05/24 07:53:58;;;;;;;4.03;1.50;;;20.00;91.80;;;;;;5018862;28;20502;-71
2022/05/24 07:56:29;;;;;;;4.70;1.43;;;20.00;91.80;;;;;;5014467;28;20555;-72
2022/05/24 07:59:00;;;;;;;3.73;1.43;;;19.90;91.80;;;;;;5015098;28;20518;-71
2022/05/24 08:01:28;;;;;;;2.53;1.70;;;19.90;91.80;;;;;;5034042;28;20473;-71
2022/05/24 08:03:54;;;;;;;4.77;1.60;;;19.90;91.80;;;;;;5021317;28;20429;-71
2022/05/24 08:06:23;;;;;;;5.20;1.73;;;19.90;91.80;;;;;;5035771;28;20451;-71
2022/05/24 08:08:49;;;;;;;2.63;1.40;;;19.90;91.70;;;;;;5036324;28;20872;-71
2022/05/24 08:11:17;;;;;;;4.07;1.43;;;19.90;91.70;;;;;;5026631;28;20487;-71
2022/05/24 08:13:46;;;;;;;4.07;2.00;;;19.90;91.70;;;;;;5053514;28;20424;-71
2022/05/24 08:16:11;;;;;;;3.77;1.67;;;19.90;91.70;;;;;;5034284;28;20475;-71
2022/05/24 08:18:38;;;;;;;2.60;1.63;;;19.90;91.60;;;;;;5034348;28;20933;-71
2022/05/24 08:21:04;;;;;;;2.27;1.60;;;19.90;91.60;;;;;;5034630;28;20428;-71
2022/05/24 08:23:35;;;;;;;3.43;2.23;;;19.90;91.60;;;;;;5041743;28;20875;-71
2022/05/24 08:26:02;;;;;;;2.80;1.47;;;19.90;91.60;;;;;;5041256;28;20503;-72
2022/05/24 08:28:28;;;;;;;3.63;1.97;;;19.90;91.60;;;;;;5016916;28;20467;-71
2022/05/24 08:30:54;;;;;;;3.23;1.70;;;19.90;91.50;;;;;;5024944;28;20441;-71
2022/05/24 08:33:28;;;;;;;4.13;1.90;;;19.90;91.50;;;;;;5038894;28;20833;-71
2022/05/24 08:35:55;;;;;;;4.87;1.80;;;19.90;91.40;;;;;;5051330;28;20469;-72
2022/05/24 08:38:23;;;;;;;3.00;2.30;;;19.90;91.40;;;;;;5040658;28;20427;-71
2022/05/24 08:40:51;;;;;;;3.87;2.23;;;19.90;91.40;;;;;;5028242;28;21070;-71
2022/05/24 08:43:38;;;;;;;3.70;1.83;;;19.90;91.30;;;;;;5028735;28;20423;-71
2022/05/24 08:49:13;;;;;;;4.10;1.60;;;19.90;91.30;;;;;;5040980;28;20484;-72
2022/05/24 08:51:49;;;;;;;3.13;1.60;;;19.90;91.30;;;;;;5025436;28;21148;-72
2022/05/24 08:54:21;;;;;;;3.30;1.93;;;19.90;91.20;;;;;;5030917;28;20760;-72
2022/05/24 08:56:57;;;;;;;3.63;1.87;;;19.90;91.20;;;;;;5034751;28;20429;-71
2022/05/24 08:59:25;;;;;;;5.07;2.10;;;19.80;91.10;;;;;;5032577;28;20453;-71
2022/05/24 09:01:59;;;;;;;4.50;2.10;;;19.90;91.10;;;;;;5032892;28;20518;-71
2022/05/24 09:04:32;;;;;;;3.23;2.03;;;19.80;91.00;;;;;;5016874;28;20440;-71
2022/05/24 09:07:37;;;;;;;5.00;2.40;;;19.80;91.00;;;;;;5040322;28;20525;-71
2022/05/24 09:10:14;;;;;;;3.13;2.00;;;19.80;90.90;;;;;;5036328;28;20436;-71
2022/05/24 09:13:12;;;;;;;3.07;1.93;;;19.80;90.80;;;;;;5052534;28;20516;-71
2022/05/24 09:15:57;;;;;;;2.73;1.57;;;19.80;90.80;;;;;;5052334;28;20480;-72
2022/05/24 09:19:00;;;;;;;2.60;1.53;;;19.80;90.80;;;;;;5053247;28;20841;-72
2022/05/24 09:21:31;;;;;;;4.20;1.67;;;19.80;90.70;;;;;;5021075;28;20480;-72
2022/05/24 09:24:47;;;;;;;3.23;1.60;;;19.80;90.70;;;;;;5013578;28;20725;-72
2022/05/24 09:27:18;;;;;;;3.03;1.87;;;19.80;90.60;;;;;;4972470;28;20530;-71
2022/05/24 09:29:56;;;;;;;1.80;1.40;;;19.80;90.50;;;;;;5008200;28;20453;-72
2022/05/24 09:32:29;;;;;;;1.93;1.17;;;19.80;90.50;;;;;;5013662;28;20412;-71
2022/05/24 09:35:26;;;;;;;3.57;1.60;;;19.80;90.40;;;;;;5012490;28;20528;-71
2022/05/24 09:38:04;;;;;;;2.13;1.40;;;19.80;90.40;;;;;;5003621;28;20521;-71
2022/05/24 09:40:48;;;;;;;2.73;1.50;;;19.80;90.40;;;;;;5015474;28;20481;-72
2022/05/24 09:43:19;;;;;;;1.33;1.23;;;19.80;90.30;;;;;;5015600;28;20434;-71
2022/05/24 09:45:52;;;;;;;2.00;1.60;;;19.80;90.30;;;;;;5048646;28;20422;-71
2022/05/24 09:48:28;;;;;;;2.97;1.43;;;19.80;90.30;;;;;;5015796;28;20418;-71
2022/05/24 09:50:56;;;;;;;3.43;1.57;;;19.80;90.20;;;;;;5031624;28;20424;-72
2022/05/24 09:53:27;;;;;;;1.87;1.13;;;19.80;90.20;;;;;;5032794;28;20412;-72
2022/05/24 09:55:55;;;;;;;2.10;1.50;;;19.80;90.10;;;;;;5033028;28;20782;-71
2022/05/24 09:58:36;;;;;;;2.30;1.33;;;19.80;90.10;;;;;;5031893;28;20797;-71
2022/05/24 10:01:30;;;;;;;2.27;1.40;;;19.80;90.00;;;;;;5031584;28;20974;-72
2022/05/24 10:04:19;;;;;;;1.50;1.20;;;19.80;89.90;;;;;;5031817;28;20404;-71
2022/05/24 10:06:55;;;;;;;1.87;1.40;;;19.80;89.70;;;;;;5031655;28;20921;-71
2022/05/24 10:09:43;;;;;;;3.23;1.20;;;19.80;89.50;;;;;;5040076;28;20487;-72
2022/05/24 10:12:24;;;;;;;4.60;1.43;;;19.80;89.30;;;;;;5011712;28;20441;-72
2022/05/24 10:14:58;;;;;;;3.53;1.43;;;19.80;89.20;;;;;;5012959;28;20442;-71
2022/05/24 10:18:04;;;;;;;4.03;1.23;;;19.80;89.30;;;;;;5028358;28;20799;-71
2022/05/24 10:20:51;;;;;;;2.83;1.40;;;19.80;89.30;;;;;;5013842;28;20499;-72
2022/05/24 10:23:48;;;;;;;2.40;1.60;;;19.80;89.40;;;;;;5031270;28;20410;-71
2022/05/24 10:26:34;;;;;;;2.13;1.33;;;19.80;89.40;;;;;;5031156;28;20872;-72
2022/05/24 10:29:24;;;;;;;1.33;1.23;;;19.80;89.30;;;;;;5032458;28;20473;-71
2022/05/24 10:38:42;;;;;;;3.93;1.70;;;19.80;88.60;;;;;;5014823;28;20493;-71
2022/05/24 10:41:20;;;;;;;2.30;1.13;;;19.80;88.30;;;;;;5030949;28;20405;-71
2022/05/24 10:44:05;;;;;;;1.77;1.33;;;19.80;88.10;;;;;;5030643;28;20429;-71
2022/05/24 10:46:36;;;;;;;2.47;1.50;;;19.80;87.90;;;;;;5031225;28;20424;-72
2022/05/24 10:49:16;;;;;;;3.40;1.40;;;19.80;87.70;;;;;;5031976;28;20432;-72
2022/05/24 10:51:50;;;;;;;4.23;1.30;;;19.80;87.60;;;;;;5032051;28;20940;-72
2022/05/24 10:54:43;;;;;;;1.60;1.30;;;19.80;87.40;;;;;;5031296;28;20454;-72
2022/05/24 10:57:26;;;;;;;1.30;1.17;;;19.80;87.40;;;;;;5014777;28;20434;-72
2022/05/24 10:59:59;;;;;;;3.13;1.23;;;19.90;87.50;;;;;;5030724;28;20584;-72
2022/05/24 11:02:40;;;;;;;2.27;1.60;;;19.80;87.40;;;;;;5014314;28;20473;-71
2022/05/24 11:05:29;;;;;;;5.77;1.40;;;19.90;87.40;;;;;;5030840;28;20935;-72
2022/05/24 11:08:10;;;;;;;2.40;1.40;;;19.90;87.40;;;;;;5030408;28;20393;-72
2022/05/24 11:10:40;;;;;;;1.30;1.20;;;19.90;87.50;;;;;;5031799;28;20498;-72
2022/05/24 11:13:15;;;;;;;1.80;1.30;;;19.90;87.40;;;;;;5032062;28;20741;-71
2022/05/24 11:15:49;;;;;;;2.80;1.50;;;19.90;87.50;;;;;;5030469;28;20428;-71
2022/05/24 11:18:18;;;;;;;4.13;1.30;;;19.90;87.70;;;;;;5030566;28;20428;-72
2022/05/24 11:21:07;;;;;;;2.37;1.47;;;19.90;87.60;;;;;;5030448;28;20466;-72
2022/05/24 11:23:48;;;;;;;2.43;1.43;;;19.80;87.50;;;;;;5013133;28;20416;-71
2022/05/24 11:26:28;;;;;;;1.60;1.40;;;19.80;87.50;;;;;;5042010;28;20445;-72
2022/05/24 11:29:12;;;;;;;2.00;1.10;;;19.90;87.60;;;;;;5013636;28;20948;-72
2022/05/24 11:31:49;;;;;;;1.93;1.20;;;19.90;87.50;;;;;;5030519;28;20410;-72
2022/05/24 11:34:23;;;;;;;1.60;1.50;;;19.80;87.30;;;;;;5030578;28;20442;-72
2022/05/24 11:37:24;;;;;;;1.37;1.20;;;19.80;87.10;;;;;;5031504;28;20904;-72
2022/05/24 11:39:52;;;;;;;1.50;1.40;;;19.90;87.10;;;;;;5030392;28;20463;-72
2022/05/24 11:42:29;;;;;;;1.73;1.53;;;19.80;87.00;;;;;;5032140;28;20443;-72
2022/05/24 11:44:58;;;;;;;3.90;1.67;;;19.90;86.60;;;;;;5033582;28;20458;-72
2022/05/24 11:47:37;;;;;;;6.10;1.67;;;19.90;86.50;;;;;;5017508;28;20800;-72
2022/05/24 11:50:10;;;;;;;2.73;1.50;;;19.90;86.70;;;;;;5034114;28;20532;-72
2022/05/24 11:53:05;;;;;;;1.83;1.30;;;19.90;86.40;;;;;;5046228;28;20989;-72
2022/05/24 11:55:40;;;;;;;1.60;1.20;;;19.90;86.10;;;;;;5054763;28;20438;-72
2022/05/24 11:58:20;;;;;;;4.33;1.57;;;19.90;86.00;;;;;;5054924;28;20491;-72
2022/05/24 12:01:07;;;;;;;2.33;1.40;;;19.90;86.00;;;;;;5037440;28;20555;-72
2022/05/24 12:09:25;;;;;;;1.10;1.00;;;20.00;85.70;;;;;;5046769;28;20449;-72
2022/05/24 12:12:20;;;;;;;1.50;1.20;;;20.00;85.20;;;;;;5034844;28;20480;-72
2022/05/24 12:14:46;;;;;;;2.03;1.60;;;20.00;85.00;;;;;;5033819;28;20853;-72
2022/05/24 12:17:24;;;;;;;1.93;1.23;;;20.00;85.10;;;;;;5033971;28;20509;-72
2022/05/24 12:19:52;;;;;;;1.30;1.10;;;20.10;85.20;;;;;;5001067;28;20489;-72
2022/05/24 12:22:20;;;;;;;4.40;1.27;;;20.10;84.90;;;;;;5033325;28;20883;-72
2022/05/24 12:25:07;;;;;;;2.00;1.33;;;20.10;84.80;;;;;;5033488;28;20487;-72
2022/05/24 12:27:44;;;;;;;5.50;1.20;;;20.10;84.70;;;;;;5033764;28;20417;-72
2022/05/24 12:30:22;;;;;;;1.30;1.20;;;20.10;84.60;;;;;;5016901;28;20494;-72
2022/05/24 12:32:49;;;;;;;1.13;1.03;;;20.10;84.30;;;;;;5034491;28;20419;-71
2022/05/24 12:35:17;;;;;;;1.30;1.10;;;20.10;84.10;;;;;;5034620;28;20404;-72
2022/05/24 12:37:50;;;;;;;2.20;1.13;;;20.10;83.90;;;;;;5034197;28;20834;-72
2022/05/24 12:40:24;;;;;;;1.73;1.20;;;20.10;83.90;;;;;;5033225;28;21000;-72
2022/05/24 12:42:52;;;;;;;2.43;1.30;;;20.10;83.80;;;;;;5033198;28;20884;-72
2022/05/24 12:45:33;;;;;;;2.43;1.50;;;20.10;83.70;;;;;;5033510;28;20509;-72
2022/05/24 12:48:01;;;;;;;1.77;1.30;;;20.10;83.40;;;;;;5016778;28;20446;-72
2022/05/24 12:50:37;;;;;;;1.23;1.13;;;20.10;83.40;;;;;;5033060;28;20482;-72
2022/05/24 12:53:11;;;;;;;1.70;1.17;;;20.10;83.00;;;;;;5033115;28;20926;-72
2022/05/24 12:55:55;;;;;;;1.77;1.30;;;20.10;82.20;;;;;;5034143;28;20482;-72
2022/05/24 12:58:30;;;;;;;2.63;1.00;;;20.20;81.90;;;;;;5032959;28;20454;-72
2022/05/24 13:01:08;;;;;;;1.10;0.90;;;20.20;81.70;;;;;;5032972;28;20535;-72
2022/05/24 13:03:37;;;;;;;1.20;1.00;;;20.20;82.30;;;;;;5033964;28;20490;-71
2022/05/24 13:06:23;;;;;;;1.23;1.13;;;20.20;81.10;;;;;;5001896;28;20480;-71
2022/05/24 13:09:17;;;;;;;3.13;1.07;;;20.20;81.10;;;;;;5016270;28;20424;-72
2022/05/24 13:11:46;;;;;;;1.50;1.20;;;20.20;81.40;;;;;;4999923;28;20512;-72
2022/05/24 13:14:35;;;;;;;2.03;1.23;;;20.20;81.10;;;;;;5032726;28;20459;-71
2022/05/24 13:17:04;;;;;;;1.73;0.90;;;20.30;81.50;;;;;;5019805;28;20451;-72
2022/05/24 13:19:54;;;;;;;1.53;1.20;;;20.30;81.60;;;;;;5016744;28;20459;-72
2022/05/24 13:22:24;;;;;;;1.47;1.00;;;20.30;81.40;;;;;;5032462;28;20441;-72
2022/05/24 13:24:59;;;;;;;1.20;1.10;;;20.30;81.40;;;;;;5033539;28;20902;-72
2022/05/24 13:27:58;;;;;;;1.83;1.30;;;20.40;81.70;;;;;;5033437;28;20449;-72
2022/05/24 13:33:51;;;;;;;2.80;1.13;;;20.40;81.60;;;;;;5032396;28;20398;-72
2022/05/24 13:36:20;;;;;;;1.57;1.20;;;20.40;81.30;;;;;;5033429;28;20402;-72
2022/05/24 13:39:03;;;;;;;1.60;1.00;;;20.50;81.50;;;;;;5032381;28;20422;-72
2022/05/24 13:41:30;;;;;;;1.80;1.47;;;20.50;81.50;;;;;;5032223;28;20459;-72
2022/05/24 13:44:24;;;;;;;6.50;1.20;;;20.40;81.60;;;;;;5031491;28;20564;-72
2022/05/24 13:47:04;;;;;;;2.97;1.20;;;20.50;81.80;;;;;;5033432;28;20883;-72
2022/05/24 13:49:38;;;;;;;2.23;1.20;;;20.50;81.90;;;;;;5015633;28;20476;-72
2022/05/24 13:52:20;;;;;;;1.70;1.13;;;20.50;82.20;;;;;;5016074;28;20440;-72
2022/05/24 13:54:49;;;;;;;3.83;1.20;;;20.50;82.40;;;;;;5014879;28;20476;-72
2022/05/24 13:57:30;;;;;;;3.00;1.20;;;20.50;82.90;;;;;;5015575;28;20796;-72
2022/05/24 14:00:02;;;;;;;1.60;1.30;;;20.50;83.20;;;;;;5032904;28;20532;-72
2022/05/24 14:02:30;;;;;;;1.30;1.10;;;20.50;83.50;;;;;;5033008;28;20468;-72